sensor_id;sensor_type;location;lat;lon;timestamp;P1;durP1;ratioP1;P2;durP2;ratioP2
12703;SDS011;6416;52.182;7.650;2022-08-03T00:01:45;1.65;;;1.17;;
12703;SDS011;6416;52.182;7.650;2022-08-03T00:04:10;2.45;;;1.55;;
12703;SDS011;6416;52.182;7.650;2022-08-03T00:06:36;1.48;;;1.38;;
12703;SDS011;6416;52.182;7.650;2022-08-03T00:09:06;2.90;;;1.40;;
12703;SDS011;6416;52.182;7.650;2022-08-03T00:11:32;1.70;;;1.40;;
12703;SDS011;6416;52.182;7.650;2022-08-03T00:14:01;1.90;;;1.60;;
12703;SDS011;6416;52.182;7.650;2022-08-03T00:16:28;2.20;;;1.35;;
12703;SDS011;6416;52.182;7.650;2022-08-03T00:18:54;1.40;;;1.30;;
12703;SDS011;6416;52.182;7.650;2022-08-03T00:21:19;1.58;;;1.40;;
12703;SDS011;6416;52.182;7.650;2022-08-03T00:23:45;1.98;;;1.83;;
12703;SDS011;6416;52.182;7.650;2022-08-03T00:26:10;1.95;;;1.77;;
12703;SDS011;6416;52.182;7.650;2022-08-03T00:28:36;2.08;;;1.40;;
12703;SDS011;6416;52.182;7.650;2022-08-03T00:31:01;1.80;;;1.70;;
12703;SDS011;6416;52.182;7.650;2022-08-03T00:33:27;3.55;;;1.50;;
12703;SDS011;6416;52.182;7.650;2022-08-03T00:35:52;2.28;;;1.50;;
12703;SDS011;6416;52.182;7.650;2022-08-03T00:38:18;2.42;;;1.45;;
12703;SDS011;6416;52.182;7.650;2022-08-03T00:40:44;1.77;;;1.67;;
12703;SDS011;6416;52.182;7.650;2022-08-03T00:43:10;2.72;;;1.92;;
12703;SDS011;6416;52.182;7.650;2022-08-03T00:45:37;3.55;;;1.75;;
12703;SDS011;6416;52.182;7.650;2022-08-03T00:48:04;2.45;;;1.98;;
12703;SDS011;6416;52.182;7.650;2022-08-03T00:50:32;2.65;;;1.88;;
12703;SDS011;6416;52.182;7.650;2022-08-03T00:53:00;1.85;;;1.73;;
12703;SDS011;6416;52.182;7.650;2022-08-03T00:55:27;1.70;;;1.52;;
12703;SDS011;6416;52.182;7.650;2022-08-03T00:57:52;2.33;;;1.80;;
12703;SDS011;6416;52.182;7.650;2022-08-03T01:00:20;1.80;;;1.70;;
12703;SDS011;6416;52.182;7.650;2022-08-03T01:02:47;2.53;;;1.70;;
12703;SDS011;6416;52.182;7.650;2022-08-03T01:05:12;2.08;;;1.98;;
12703;SDS011;6416;52.182;7.650;2022-08-03T01:13:05;1.70;;;1.60;;
12703;SDS011;6416;52.182;7.650;2022-08-03T01:16:11;1.60;;;1.50;;
12703;SDS011;6416;52.182;7.650;2022-08-03T01:21:28;1.92;;;1.77;;
12703;SDS011;6416;52.182;7.650;2022-08-03T01:24:01;1.75;;;1.65;;
12703;SDS011;6416;52.182;7.650;2022-08-03T01:26:37;2.55;;;1.90;;
12703;SDS011;6416;52.182;7.650;2022-08-03T01:32:07;4.00;;;2.17;;
12703;SDS011;6416;52.182;7.650;2022-08-03T01:34:40;2.60;;;1.90;;
12703;SDS011;6416;52.182;7.650;2022-08-03T01:37:10;1.98;;;1.88;;
12703;SDS011;6416;52.182;7.650;2022-08-03T01:39:39;4.25;;;2.03;;
12703;SDS011;6416;52.182;7.650;2022-08-03T01:42:07;1.95;;;1.75;;
12703;SDS011;6416;52.182;7.650;2022-08-03T01:44:36;2.67;;;1.90;;
12703;SDS011;6416;52.182;7.650;2022-08-03T01:47:05;2.10;;;2.00;;
12703;SDS011;6416;52.182;7.650;2022-08-03T01:49:33;4.00;;;2.60;;
12703;SDS011;6416;52.182;7.650;2022-08-03T01:52:07;3.05;;;2.08;;
12703;SDS011;6416;52.182;7.650;2022-08-03T01:54:35;2.08;;;1.98;;
12703;SDS011;6416;52.182;7.650;2022-08-03T01:57:15;2.63;;;2.17;;
12703;SDS011;6416;52.182;7.650;2022-08-03T01:59:43;2.38;;;2.17;;
12703;SDS011;6416;52.182;7.650;2022-08-03T02:02:11;2.03;;;1.92;;
12703;SDS011;6416;52.182;7.650;2022-08-03T02:04:38;2.17;;;1.98;;
12703;SDS011;6416;52.182;7.650;2022-08-03T02:07:07;2.88;;;2.03;;
12703;SDS011;6416;52.182;7.650;2022-08-03T02:09:33;2.30;;;2.03;;
12703;SDS011;6416;52.182;7.650;2022-08-03T02:12:02;2.72;;;2.53;;
12703;SDS011;6416;52.182;7.650;2022-08-03T02:14:31;2.33;;;2.13;;
12703;SDS011;6416;52.182;7.650;2022-08-03T02:16:57;3.10;;;2.30;;
12703;SDS011;6416;52.182;7.650;2022-08-03T02:19:24;2.60;;;2.40;;
12703;SDS011;6416;52.182;7.650;2022-08-03T02:21:51;2.63;;;2.30;;
12703;SDS011;6416;52.182;7.650;2022-08-03T02:24:17;7.15;;;2.50;;
12703;SDS011;6416;52.182;7.650;2022-08-03T02:26:43;2.28;;;2.08;;
12703;SDS011;6416;52.182;7.650;2022-08-03T02:29:12;2.78;;;2.13;;
12703;SDS011;6416;52.182;7.650;2022-08-03T02:31:42;2.30;;;2.10;;
12703;SDS011;6416;52.182;7.650;2022-08-03T02:34:11;2.33;;;2.15;;
12703;SDS011;6416;52.182;7.650;2022-08-03T02:36:38;2.65;;;2.45;;
12703;SDS011;6416;52.182;7.650;2022-08-03T02:39:06;2.70;;;2.17;;
12703;SDS011;6416;52.182;7.650;2022-08-03T02:41:47;2.55;;;2.35;;
12703;SDS011;6416;52.182;7.650;2022-08-03T02:44:16;3.38;;;2.67;;
12703;SDS011;6416;52.182;7.650;2022-08-03T02:46:45;4.57;;;2.88;;
12703;SDS011;6416;52.182;7.650;2022-08-03T02:49:13;2.53;;;2.33;;
12703;SDS011;6416;52.182;7.650;2022-08-03T02:51:41;2.78;;;2.58;;
12703;SDS011;6416;52.182;7.650;2022-08-03T02:54:07;4.63;;;2.75;;
12703;SDS011;6416;52.182;7.650;2022-08-03T02:56:34;3.10;;;2.80;;
12703;SDS011;6416;52.182;7.650;2022-08-03T02:59:01;2.95;;;2.50;;
12703;SDS011;6416;52.182;7.650;2022-08-03T03:01:28;2.60;;;2.40;;
12703;SDS011;6416;52.182;7.650;2022-08-03T03:03:55;2.53;;;2.40;;
12703;SDS011;6416;52.182;7.650;2022-08-03T03:06:22;3.40;;;3.10;;
12703;SDS011;6416;52.182;7.650;2022-08-03T03:08:49;4.00;;;2.83;;
12703;SDS011;6416;52.182;7.650;2022-08-03T03:11:16;3.45;;;2.50;;
12703;SDS011;6416;52.182;7.650;2022-08-03T03:13:44;3.95;;;2.97;;
12703;SDS011;6416;52.182;7.650;2022-08-03T03:16:11;2.90;;;2.70;;
12703;SDS011;6416;52.182;7.650;2022-08-03T03:18:38;3.65;;;2.53;;
12703;SDS011;6416;52.182;7.650;2022-08-03T03:21:04;3.15;;;2.95;;
12703;SDS011;6416;52.182;7.650;2022-08-03T03:23:34;8.07;;;6.65;;
12703;SDS011;6416;52.182;7.650;2022-08-03T03:26:02;3.22;;;2.75;;
12703;SDS011;6416;52.182;7.650;2022-08-03T03:28:28;4.40;;;3.00;;
12703;SDS011;6416;52.182;7.650;2022-08-03T03:30:55;2.90;;;2.70;;
12703;SDS011;6416;52.182;7.650;2022-08-03T03:33:22;3.10;;;2.80;;
12703;SDS011;6416;52.182;7.650;2022-08-03T03:35:48;4.28;;;2.92;;
12703;SDS011;6416;52.182;7.650;2022-08-03T03:38:14;4.95;;;3.03;;
12703;SDS011;6416;52.182;7.650;2022-08-03T03:40:40;3.00;;;2.75;;
12703;SDS011;6416;52.182;7.650;2022-08-03T03:43:06;3.55;;;2.92;;
12703;SDS011;6416;52.182;7.650;2022-08-03T03:45:33;3.10;;;2.80;;
12703;SDS011;6416;52.182;7.650;2022-08-03T03:48:02;3.40;;;3.08;;
12703;SDS011;6416;52.182;7.650;2022-08-03T03:50:30;4.90;;;3.97;;
12703;SDS011;6416;52.182;7.650;2022-08-03T03:52:57;3.92;;;3.50;;
12703;SDS011;6416;52.182;7.650;2022-08-03T03:55:22;6.95;;;2.95;;
12703;SDS011;6416;52.182;7.650;2022-08-03T03:57:48;3.38;;;3.05;;
12703;SDS011;6416;52.182;7.650;2022-08-03T04:00:14;3.40;;;3.10;;
12703;SDS011;6416;52.182;7.650;2022-08-03T04:02:41;2.83;;;2.63;;
12703;SDS011;6416;52.182;7.650;2022-08-03T04:05:07;3.10;;;2.80;;
12703;SDS011;6416;52.182;7.650;2022-08-03T04:07:35;5.53;;;3.20;;
12703;SDS011;6416;52.182;7.650;2022-08-03T04:10:23;2.70;;;2.50;;
12703;SDS011;6416;52.182;7.650;2022-08-03T04:12:53;5.00;;;3.08;;
12703;SDS011;6416;52.182;7.650;2022-08-03T04:15:22;4.80;;;3.33;;
12703;SDS011;6416;52.182;7.650;2022-08-03T04:17:49;3.63;;;3.30;;
12703;SDS011;6416;52.182;7.650;2022-08-03T04:20:22;4.60;;;3.15;;
12703;SDS011;6416;52.182;7.650;2022-08-03T04:22:51;5.63;;;3.70;;
12703;SDS011;6416;52.182;7.650;2022-08-03T04:25:18;3.88;;;3.08;;
12703;SDS011;6416;52.182;7.650;2022-08-03T04:27:48;6.38;;;3.03;;
12703;SDS011;6416;52.182;7.650;2022-08-03T04:30:15;3.60;;;3.30;;
12703;SDS011;6416;52.182;7.650;2022-08-03T04:32:41;3.40;;;3.15;;
12703;SDS011;6416;52.182;7.650;2022-08-03T04:35:07;4.60;;;3.15;;
12703;SDS011;6416;52.182;7.650;2022-08-03T04:37:40;3.80;;;3.13;;
12703;SDS011;6416;52.182;7.650;2022-08-03T04:40:09;3.50;;;3.20;;
12703;SDS011;6416;52.182;7.650;2022-08-03T04:42:49;3.30;;;3.00;;
12703;SDS011;6416;52.182;7.650;2022-08-03T04:45:17;3.40;;;3.10;;
12703;SDS011;6416;52.182;7.650;2022-08-03T04:47:44;3.80;;;3.40;;
12703;SDS011;6416;52.182;7.650;2022-08-03T04:50:10;3.35;;;3.15;;
12703;SDS011;6416;52.182;7.650;2022-08-03T04:52:37;3.65;;;3.22;;
12703;SDS011;6416;52.182;7.650;2022-08-03T04:55:03;3.38;;;3.08;;
12703;SDS011;6416;52.182;7.650;2022-08-03T04:57:29;3.42;;;3.17;;
12703;SDS011;6416;52.182;7.650;2022-08-03T04:59:54;5.32;;;3.40;;
12703;SDS011;6416;52.182;7.650;2022-08-03T05:02:20;3.22;;;3.03;;
12703;SDS011;6416;52.182;7.650;2022-08-03T05:04:45;3.50;;;3.20;;
12703;SDS011;6416;52.182;7.650;2022-08-03T05:07:12;3.58;;;3.28;;
12703;SDS011;6416;52.182;7.650;2022-08-03T05:09:38;3.97;;;3.38;;
12703;SDS011;6416;52.182;7.650;2022-08-03T05:12:04;3.50;;;3.20;;
12703;SDS011;6416;52.182;7.650;2022-08-03T05:14:30;3.53;;;3.22;;
12703;SDS011;6416;52.182;7.650;2022-08-03T05:16:56;3.55;;;3.25;;
12703;SDS011;6416;52.182;7.650;2022-08-03T05:19:21;3.85;;;3.55;;
12703;SDS011;6416;52.182;7.650;2022-08-03T05:21:47;3.58;;;3.28;;
12703;SDS011;6416;52.182;7.650;2022-08-03T05:24:12;4.60;;;3.50;;
12703;SDS011;6416;52.182;7.650;2022-08-03T05:26:38;3.40;;;3.10;;
12703;SDS011;6416;52.182;7.650;2022-08-03T05:29:03;3.70;;;3.40;;
12703;SDS011;6416;52.182;7.650;2022-08-03T05:31:29;4.72;;;3.65;;
12703;SDS011;6416;52.182;7.650;2022-08-03T05:33:55;3.35;;;3.05;;
12703;SDS011;6416;52.182;7.650;2022-08-03T05:36:21;5.53;;;4.30;;
12703;SDS011;6416;52.182;7.650;2022-08-03T05:38:46;3.25;;;3.03;;
12703;SDS011;6416;52.182;7.650;2022-08-03T05:41:12;5.10;;;3.63;;
12703;SDS011;6416;52.182;7.650;2022-08-03T05:43:37;4.75;;;3.10;;
12703;SDS011;6416;52.182;7.650;2022-08-03T05:46:03;3.15;;;2.63;;
12703;SDS011;6416;52.182;7.650;2022-08-03T05:48:28;2.97;;;2.78;;
12703;SDS011;6416;52.182;7.650;2022-08-03T05:50:54;3.22;;;2.85;;
12703;SDS011;6416;52.182;7.650;2022-08-03T05:53:19;3.85;;;3.10;;
12703;SDS011;6416;52.182;7.650;2022-08-03T05:55:45;3.60;;;3.17;;
12703;SDS011;6416;52.182;7.650;2022-08-03T05:58:10;3.35;;;3.05;;
12703;SDS011;6416;52.182;7.650;2022-08-03T06:00:36;3.17;;;2.90;;
12703;SDS011;6416;52.182;7.650;2022-08-03T06:03:01;3.40;;;2.90;;
12703;SDS011;6416;52.182;7.650;2022-08-03T06:05:27;4.88;;;3.10;;
12703;SDS011;6416;52.182;7.650;2022-08-03T06:07:53;3.13;;;2.85;;
12703;SDS011;6416;52.182;7.650;2022-08-03T06:10:19;3.00;;;2.80;;
12703;SDS011;6416;52.182;7.650;2022-08-03T06:12:44;3.08;;;2.78;;
12703;SDS011;6416;52.182;7.650;2022-08-03T06:15:10;3.20;;;2.63;;
12703;SDS011;6416;52.182;7.650;2022-08-03T06:17:42;4.05;;;2.83;;
12703;SDS011;6416;52.182;7.650;2022-08-03T06:20:09;2.65;;;2.45;;
12703;SDS011;6416;52.182;7.650;2022-08-03T06:22:35;3.25;;;2.70;;
12703;SDS011;6416;52.182;7.650;2022-08-03T06:25:01;2.90;;;2.40;;
12703;SDS011;6416;52.182;7.650;2022-08-03T06:27:26;5.40;;;2.47;;
12703;SDS011;6416;52.182;7.650;2022-08-03T06:29:52;2.88;;;2.67;;
12703;SDS011;6416;52.182;7.650;2022-08-03T06:32:17;4.25;;;2.65;;
12703;SDS011;6416;52.182;7.650;2022-08-03T06:34:43;6.82;;;2.55;;
12703;SDS011;6416;52.182;7.650;2022-08-03T06:37:08;3.22;;;2.10;;
12703;SDS011;6416;52.182;7.650;2022-08-03T06:39:34;3.67;;;2.72;;
12703;SDS011;6416;52.182;7.650;2022-08-03T06:41:59;4.13;;;2.17;;
12703;SDS011;6416;52.182;7.650;2022-08-03T06:44:25;3.13;;;2.33;;
12703;SDS011;6416;52.182;7.650;2022-08-03T06:46:50;3.85;;;2.25;;
12703;SDS011;6416;52.182;7.650;2022-08-03T06:49:16;5.35;;;2.70;;
12703;SDS011;6416;52.182;7.650;2022-08-03T06:51:41;2.20;;;1.83;;
12703;SDS011;6416;52.182;7.650;2022-08-03T06:54:07;3.30;;;2.20;;
12703;SDS011;6416;52.182;7.650;2022-08-03T06:56:32;4.30;;;2.30;;
12703;SDS011;6416;52.182;7.650;2022-08-03T06:58:58;4.45;;;2.90;;
12703;SDS011;6416;52.182;7.650;2022-08-03T07:01:23;2.72;;;2.17;;
12703;SDS011;6416;52.182;7.650;2022-08-03T07:03:49;3.05;;;2.25;;
12703;SDS011;6416;52.182;7.650;2022-08-03T07:06:14;3.28;;;2.17;;
12703;SDS011;6416;52.182;7.650;2022-08-03T07:08:40;3.83;;;2.50;;
12703;SDS011;6416;52.182;7.650;2022-08-03T07:11:05;4.38;;;1.90;;
12703;SDS011;6416;52.182;7.650;2022-08-03T07:13:30;2.78;;;2.20;;
12703;SDS011;6416;52.182;7.650;2022-08-03T07:15:56;2.97;;;2.13;;
12703;SDS011;6416;52.182;7.650;2022-08-03T07:18:21;2.55;;;1.92;;
12703;SDS011;6416;52.182;7.650;2022-08-03T07:20:47;4.45;;;1.92;;
12703;SDS011;6416;52.182;7.650;2022-08-03T07:23:13;2.60;;;1.70;;
12703;SDS011;6416;52.182;7.650;2022-08-03T07:25:38;2.60;;;2.20;;
12703;SDS011;6416;52.182;7.650;2022-08-03T07:28:03;3.75;;;1.67;;
12703;SDS011;6416;52.182;7.650;2022-08-03T07:30:29;4.72;;;1.55;;
12703;SDS011;6416;52.182;7.650;2022-08-03T07:32:55;6.53;;;1.67;;
12703;SDS011;6416;52.182;7.650;2022-08-03T07:35:20;2.00;;;1.38;;
12703;SDS011;6416;52.182;7.650;2022-08-03T07:37:45;2.88;;;1.45;;
12703;SDS011;6416;52.182;7.650;2022-08-03T07:40:11;2.20;;;1.30;;
12703;SDS011;6416;52.182;7.650;2022-08-03T07:42:36;1.92;;;1.42;;
12703;SDS011;6416;52.182;7.650;2022-08-03T07:45:02;2.22;;;1.08;;
12703;SDS011;6416;52.182;7.650;2022-08-03T07:47:29;3.15;;;1.20;;
12703;SDS011;6416;52.182;7.650;2022-08-03T07:49:55;2.05;;;1.35;;
12703;SDS011;6416;52.182;7.650;2022-08-03T07:52:21;4.22;;;1.40;;
12703;SDS011;6416;52.182;7.650;2022-08-03T07:54:47;3.33;;;1.25;;
12703;SDS011;6416;52.182;7.650;2022-08-03T07:57:12;4.68;;;1.25;;
12703;SDS011;6416;52.182;7.650;2022-08-03T07:59:38;1.85;;;0.90;;
12703;SDS011;6416;52.182;7.650;2022-08-03T08:02:04;1.98;;;0.85;;
12703;SDS011;6416;52.182;7.650;2022-08-03T08:04:31;2.03;;;1.17;;
12703;SDS011;6416;52.182;7.650;2022-08-03T08:06:56;1.77;;;1.23;;
12703;SDS011;6416;52.182;7.650;2022-08-03T08:09:22;2.05;;;1.00;;
12703;SDS011;6416;52.182;7.650;2022-08-03T08:11:48;2.75;;;1.20;;
12703;SDS011;6416;52.182;7.650;2022-08-03T08:14:13;4.38;;;1.60;;
12703;SDS011;6416;52.182;7.650;2022-08-03T08:16:39;1.38;;;1.10;;
12703;SDS011;6416;52.182;7.650;2022-08-03T08:19:04;2.53;;;1.20;;
12703;SDS011;6416;52.182;7.650;2022-08-03T08:21:30;2.00;;;1.20;;
12703;SDS011;6416;52.182;7.650;2022-08-03T08:23:55;1.65;;;1.23;;
12703;SDS011;6416;52.182;7.650;2022-08-03T08:26:21;5.93;;;1.33;;
12703;SDS011;6416;52.182;7.650;2022-08-03T08:28:46;3.20;;;1.25;;
12703;SDS011;6416;52.182;7.650;2022-08-03T08:31:12;3.75;;;1.25;;
12703;SDS011;6416;52.182;7.650;2022-08-03T08:33:37;1.70;;;1.10;;
12703;SDS011;6416;52.182;7.650;2022-08-03T08:36:03;2.03;;;1.10;;
12703;SDS011;6416;52.182;7.650;2022-08-03T08:38:28;1.45;;;1.02;;
12703;SDS011;6416;52.182;7.650;2022-08-03T08:40:54;1.10;;;0.80;;
12703;SDS011;6416;52.182;7.650;2022-08-03T08:43:20;1.20;;;0.73;;
12703;SDS011;6416;52.182;7.650;2022-08-03T08:45:48;1.67;;;0.80;;
12703;SDS011;6416;52.182;7.650;2022-08-03T08:48:14;1.60;;;0.90;;
12703;SDS011;6416;52.182;7.650;2022-08-03T08:50:41;2.10;;;1.20;;
12703;SDS011;6416;52.182;7.650;2022-08-03T08:53:08;0.93;;;0.77;;
12703;SDS011;6416;52.182;7.650;2022-08-03T08:55:36;2.47;;;1.00;;
12703;SDS011;6416;52.182;7.650;2022-08-03T08:58:03;3.92;;;1.02;;
12703;SDS011;6416;52.182;7.650;2022-08-03T09:00:29;1.77;;;1.10;;
12703;SDS011;6416;52.182;7.650;2022-08-03T09:02:55;4.22;;;1.10;;
12703;SDS011;6416;52.182;7.650;2022-08-03T09:05:21;2.22;;;1.00;;
12703;SDS011;6416;52.182;7.650;2022-08-03T09:07:47;1.13;;;0.70;;
12703;SDS011;6416;52.182;7.650;2022-08-03T09:10:13;4.18;;;1.20;;
12703;SDS011;6416;52.182;7.650;2022-08-03T09:12:41;1.38;;;1.00;;
12703;SDS011;6416;52.182;7.650;2022-08-03T09:15:18;1.67;;;1.00;;
12703;SDS011;6416;52.182;7.650;2022-08-03T09:17:44;2.28;;;0.90;;
12703;SDS011;6416;52.182;7.650;2022-08-03T09:20:09;6.97;;;1.30;;
12703;SDS011;6416;52.182;7.650;2022-08-03T09:22:41;2.38;;;1.10;;
12703;SDS011;6416;52.182;7.650;2022-08-03T09:28:02;2.15;;;1.00;;
12703;SDS011;6416;52.182;7.650;2022-08-03T09:30:36;1.50;;;0.90;;
12703;SDS011;6416;52.182;7.650;2022-08-03T09:33:04;1.65;;;1.00;;
12703;SDS011;6416;52.182;7.650;2022-08-03T09:35:32;2.42;;;1.00;;
12703;SDS011;6416;52.182;7.650;2022-08-03T09:38:19;1.63;;;1.00;;
12703;SDS011;6416;52.182;7.650;2022-08-03T09:40:46;1.92;;;0.90;;
12703;SDS011;6416;52.182;7.650;2022-08-03T09:43:12;1.30;;;1.00;;
12703;SDS011;6416;52.182;7.650;2022-08-03T09:45:38;3.20;;;1.08;;
12703;SDS011;6416;52.182;7.650;2022-08-03T09:50:53;2.75;;;1.40;;
12703;SDS011;6416;52.182;7.650;2022-08-03T09:53:20;4.57;;;1.10;;
12703;SDS011;6416;52.182;7.650;2022-08-03T09:55:52;2.45;;;1.20;;
12703;SDS011;6416;52.182;7.650;2022-08-03T09:58:22;2.42;;;1.00;;
12703;SDS011;6416;52.182;7.650;2022-08-03T10:00:52;1.75;;;1.00;;
12703;SDS011;6416;52.182;7.650;2022-08-03T10:03:18;1.48;;;1.05;;
12703;SDS011;6416;52.182;7.650;2022-08-03T10:05:43;3.08;;;1.13;;
12703;SDS011;6416;52.182;7.650;2022-08-03T10:08:13;1.60;;;1.00;;
12703;SDS011;6416;52.182;7.650;2022-08-03T10:10:43;1.70;;;1.20;;
12703;SDS011;6416;52.182;7.650;2022-08-03T10:13:11;5.40;;;1.40;;
12703;SDS011;6416;52.182;7.650;2022-08-03T10:15:38;1.75;;;1.10;;
12703;SDS011;6416;52.182;7.650;2022-08-03T10:18:04;4.00;;;1.35;;
12703;SDS011;6416;52.182;7.650;2022-08-03T10:20:30;3.45;;;1.30;;
12703;SDS011;6416;52.182;7.650;2022-08-03T10:22:57;1.48;;;0.95;;
12703;SDS011;6416;52.182;7.650;2022-08-03T10:25:23;2.35;;;1.10;;
12703;SDS011;6416;52.182;7.650;2022-08-03T10:27:53;2.17;;;1.45;;
12703;SDS011;6416;52.182;7.650;2022-08-03T10:30:22;1.63;;;1.20;;
12703;SDS011;6416;52.182;7.650;2022-08-03T10:32:51;2.85;;;1.20;;
12703;SDS011;6416;52.182;7.650;2022-08-03T10:35:19;1.33;;;1.00;;
12703;SDS011;6416;52.182;7.650;2022-08-03T10:38:28;5.93;;;1.10;;
12703;SDS011;6416;52.182;7.650;2022-08-03T10:40:38;1.23;;;1.00;;
12703;SDS011;6416;52.182;7.650;2022-08-03T10:43:09;2.25;;;1.17;;
12703;SDS011;6416;52.182;7.650;2022-08-03T10:45:40;1.50;;;1.08;;
12703;SDS011;6416;52.182;7.650;2022-08-03T10:48:07;4.05;;;1.30;;
12703;SDS011;6416;52.182;7.650;2022-08-03T10:50:33;5.07;;;1.30;;
12703;SDS011;6416;52.182;7.650;2022-08-03T10:53:00;2.15;;;0.90;;
12703;SDS011;6416;52.182;7.650;2022-08-03T10:55:37;3.13;;;1.25;;
12703;SDS011;6416;52.182;7.650;2022-08-03T10:58:07;2.85;;;0.90;;
12703;SDS011;6416;52.182;7.650;2022-08-03T11:00:33;1.85;;;1.00;;
12703;SDS011;6416;52.182;7.650;2022-08-03T11:03:13;2.88;;;0.77;;
12703;SDS011;6416;52.182;7.650;2022-08-03T11:05:42;0.90;;;0.85;;
12703;SDS011;6416;52.182;7.650;2022-08-03T11:10:58;1.63;;;0.88;;
12703;SDS011;6416;52.182;7.650;2022-08-03T11:13:57;8.20;;;1.10;;
12703;SDS011;6416;52.182;7.650;2022-08-03T11:16:35;1.48;;;0.85;;
12703;SDS011;6416;52.182;7.650;2022-08-03T11:19:05;4.10;;;0.90;;
12703;SDS011;6416;52.182;7.650;2022-08-03T11:46:29;3.63;;;1.00;;
12703;SDS011;6416;52.182;7.650;2022-08-03T11:48:40;3.65;;;1.00;;
12703;SDS011;6416;52.182;7.650;2022-08-03T11:51:07;2.65;;;0.77;;
12703;SDS011;6416;52.182;7.650;2022-08-03T11:53:50;2.50;;;0.75;;
12703;SDS011;6416;52.182;7.650;2022-08-03T11:56:24;2.95;;;1.20;;
12703;SDS011;6416;52.182;7.650;2022-08-03T11:58:51;3.42;;;1.08;;
12703;SDS011;6416;52.182;7.650;2022-08-03T12:01:21;4.10;;;0.95;;
12703;SDS011;6416;52.182;7.650;2022-08-03T12:03:48;5.63;;;1.02;;
12703;SDS011;6416;52.182;7.650;2022-08-03T12:06:14;2.45;;;1.23;;
12703;SDS011;6416;52.182;7.650;2022-08-03T12:08:41;3.25;;;1.13;;
12703;SDS011;6416;52.182;7.650;2022-08-03T12:11:08;2.20;;;0.77;;
12703;SDS011;6416;52.182;7.650;2022-08-03T12:13:42;2.78;;;1.00;;
12703;SDS011;6416;52.182;7.650;2022-08-03T12:16:16;3.40;;;0.90;;
12703;SDS011;6416;52.182;7.650;2022-08-03T12:18:58;5.07;;;1.00;;
12703;SDS011;6416;52.182;7.650;2022-08-03T12:21:28;3.97;;;0.90;;
12703;SDS011;6416;52.182;7.650;2022-08-03T12:23:58;4.60;;;1.05;;
12703;SDS011;6416;52.182;7.650;2022-08-03T12:26:25;2.65;;;1.38;;
12703;SDS011;6416;52.182;7.650;2022-08-03T12:28:52;5.70;;;1.38;;
12703;SDS011;6416;52.182;7.650;2022-08-03T12:31:17;2.33;;;1.02;;
12703;SDS011;6416;52.182;7.650;2022-08-03T12:34:01;5.05;;;1.30;;
12703;SDS011;6416;52.182;7.650;2022-08-03T12:36:30;1.85;;;0.98;;
12703;SDS011;6416;52.182;7.650;2022-08-03T12:38:58;2.03;;;0.88;;
12703;SDS011;6416;52.182;7.650;2022-08-03T12:41:26;3.78;;;1.20;;
12703;SDS011;6416;52.182;7.650;2022-08-03T12:44:06;5.65;;;1.50;;
12703;SDS011;6416;52.182;7.650;2022-08-03T12:46:33;4.18;;;1.20;;
12703;SDS011;6416;52.182;7.650;2022-08-03T12:49:03;2.88;;;1.13;;
12703;SDS011;6416;52.182;7.650;2022-08-03T12:51:40;3.38;;;1.42;;
12703;SDS011;6416;52.182;7.650;2022-08-03T12:54:21;7.35;;;1.20;;
12703;SDS011;6416;52.182;7.650;2022-08-03T12:59:31;2.30;;;1.00;;
12703;SDS011;6416;52.182;7.650;2022-08-03T13:01:58;3.75;;;1.40;;
12703;SDS011;6416;52.182;7.650;2022-08-03T13:04:24;2.80;;;1.17;;
12703;SDS011;6416;52.182;7.650;2022-08-03T13:06:58;7.85;;;1.25;;
12703;SDS011;6416;52.182;7.650;2022-08-03T13:09:28;3.03;;;1.25;;
12703;SDS011;6416;52.182;7.650;2022-08-03T13:12:04;1.38;;;0.75;;
12703;SDS011;6416;52.182;7.650;2022-08-03T13:14:41;2.85;;;1.10;;
12703;SDS011;6416;52.182;7.650;2022-08-03T13:17:08;4.57;;;1.50;;
12703;SDS011;6416;52.182;7.650;2022-08-03T13:19:34;2.75;;;1.20;;
12703;SDS011;6416;52.182;7.650;2022-08-03T13:24:47;3.45;;;1.20;;
12703;SDS011;6416;52.182;7.650;2022-08-03T13:27:15;4.75;;;1.75;;
12703;SDS011;6416;52.182;7.650;2022-08-03T13:29:41;4.88;;;1.50;;
12703;SDS011;6416;52.182;7.650;2022-08-03T13:32:06;2.90;;;1.20;;
12703;SDS011;6416;52.182;7.650;2022-08-03T13:34:32;6.55;;;1.38;;
12703;SDS011;6416;52.182;7.650;2022-08-03T13:36:57;4.68;;;1.15;;
12703;SDS011;6416;52.182;7.650;2022-08-03T13:39:23;4.13;;;1.00;;
12703;SDS011;6416;52.182;7.650;2022-08-03T13:41:49;5.65;;;1.48;;
12703;SDS011;6416;52.182;7.650;2022-08-03T13:44:14;4.57;;;1.92;;
12703;SDS011;6416;52.182;7.650;2022-08-03T13:46:40;3.33;;;1.20;;
12703;SDS011;6416;52.182;7.650;2022-08-03T13:49:06;2.70;;;1.17;;
12703;SDS011;6416;52.182;7.650;2022-08-03T13:51:32;3.22;;;1.15;;
12703;SDS011;6416;52.182;7.650;2022-08-03T13:53:58;3.35;;;1.58;;
12703;SDS011;6416;52.182;7.650;2022-08-03T13:56:24;3.33;;;1.23;;
12703;SDS011;6416;52.182;7.650;2022-08-03T13:58:50;5.30;;;1.50;;
12703;SDS011;6416;52.182;7.650;2022-08-03T14:01:15;10.52;;;2.10;;
12703;SDS011;6416;52.182;7.650;2022-08-03T14:03:41;4.75;;;1.02;;
12703;SDS011;6416;52.182;7.650;2022-08-03T14:06:06;4.68;;;2.13;;
12703;SDS011;6416;52.182;7.650;2022-08-03T14:08:32;4.85;;;1.58;;
12703;SDS011;6416;52.182;7.650;2022-08-03T14:10:57;6.38;;;1.33;;
12703;SDS011;6416;52.182;7.650;2022-08-03T14:13:23;1.33;;;0.90;;
12703;SDS011;6416;52.182;7.650;2022-08-03T14:15:48;4.00;;;1.40;;
12703;SDS011;6416;52.182;7.650;2022-08-03T14:18:14;3.25;;;1.38;;
12703;SDS011;6416;52.182;7.650;2022-08-03T14:20:39;4.50;;;1.42;;
12703;SDS011;6416;52.182;7.650;2022-08-03T14:23:05;4.60;;;1.45;;
12703;SDS011;6416;52.182;7.650;2022-08-03T14:25:31;3.10;;;1.10;;
12703;SDS011;6416;52.182;7.650;2022-08-03T14:27:56;7.07;;;1.95;;
12703;SDS011;6416;52.182;7.650;2022-08-03T14:30:22;3.38;;;1.20;;
12703;SDS011;6416;52.182;7.650;2022-08-03T14:32:47;2.55;;;1.40;;
12703;SDS011;6416;52.182;7.650;2022-08-03T14:35:13;6.45;;;1.50;;
12703;SDS011;6416;52.182;7.650;2022-08-03T14:37:38;5.38;;;1.58;;
12703;SDS011;6416;52.182;7.650;2022-08-03T14:40:04;5.25;;;1.50;;
12703;SDS011;6416;52.182;7.650;2022-08-03T14:42:30;4.80;;;1.10;;
12703;SDS011;6416;52.182;7.650;2022-08-03T14:44:56;3.90;;;1.20;;
12703;SDS011;6416;52.182;7.650;2022-08-03T14:47:21;2.45;;;0.98;;
12703;SDS011;6416;52.182;7.650;2022-08-03T14:49:47;3.70;;;1.10;;
12703;SDS011;6416;52.182;7.650;2022-08-03T14:52:12;5.57;;;1.40;;
12703;SDS011;6416;52.182;7.650;2022-08-03T14:54:38;3.42;;;0.90;;
12703;SDS011;6416;52.182;7.650;2022-08-03T14:57:03;1.80;;;1.10;;
12703;SDS011;6416;52.182;7.650;2022-08-03T14:59:29;2.35;;;1.17;;
12703;SDS011;6416;52.182;7.650;2022-08-03T15:01:54;2.13;;;1.02;;
12703;SDS011;6416;52.182;7.650;2022-08-03T15:04:20;3.75;;;1.23;;
12703;SDS011;6416;52.182;7.650;2022-08-03T15:06:45;5.63;;;1.33;;
12703;SDS011;6416;52.182;7.650;2022-08-03T15:09:10;3.53;;;1.13;;
12703;SDS011;6416;52.182;7.650;2022-08-03T15:11:36;1.60;;;1.00;;
12703;SDS011;6416;52.182;7.650;2022-08-03T15:14:01;3.38;;;1.38;;
12703;SDS011;6416;52.182;7.650;2022-08-03T15:16:27;2.70;;;0.70;;
12703;SDS011;6416;52.182;7.650;2022-08-03T15:18:52;3.03;;;0.90;;
12703;SDS011;6416;52.182;7.650;2022-08-03T15:21:18;2.03;;;1.02;;
12703;SDS011;6416;52.182;7.650;2022-08-03T15:23:43;1.88;;;1.02;;
12703;SDS011;6416;52.182;7.650;2022-08-03T15:26:09;3.50;;;1.35;;
12703;SDS011;6416;52.182;7.650;2022-08-03T15:28:34;2.25;;;0.90;;
12703;SDS011;6416;52.182;7.650;2022-08-03T15:31:00;2.28;;;0.95;;
12703;SDS011;6416;52.182;7.650;2022-08-03T15:33:26;3.13;;;1.20;;
12703;SDS011;6416;52.182;7.650;2022-08-03T15:35:51;4.00;;;1.17;;
12703;SDS011;6416;52.182;7.650;2022-08-03T15:38:17;5.72;;;0.98;;
12703;SDS011;6416;52.182;7.650;2022-08-03T15:40:43;3.08;;;1.33;;
12703;SDS011;6416;52.182;7.650;2022-08-03T15:43:09;3.75;;;1.05;;
12703;SDS011;6416;52.182;7.650;2022-08-03T15:45:34;4.32;;;1.02;;
12703;SDS011;6416;52.182;7.650;2022-08-03T15:48:01;4.18;;;1.15;;
12703;SDS011;6416;52.182;7.650;2022-08-03T15:50:26;2.97;;;0.93;;
12703;SDS011;6416;52.182;7.650;2022-08-03T15:52:52;2.25;;;1.08;;